sensor_id;sensor_type;location;lat;lon;timestamp;pressure;altitude;pressure_sealevel;temperature;humidity
54439;BME280;40347;53.848;27.498;2023-03-18T00:03:29;1024.8;;;2.8;48.8
54439;BME280;40347;53.848;27.498;2023-03-18T00:08:29;1024.9;;;2.7;49.1
54439;BME280;40347;53.848;27.498;2023-03-18T00:13:41;1025;;;2.7;48.9
54439;BME280;40347;53.848;27.498;2023-03-18T00:18:29;1025;;;2.7;49.1
54439;BME280;40347;53.848;27.498;2023-03-18T00:23:30;1025;;;2.6;49.3
54439;BME280;40347;53.848;27.498;2023-03-18T00:29:09;1025;;;2.7;49.3
54439;BME280;40347;53.848;27.498;2023-03-18T00:34:19;1025;;;2.6;49.3
54439;BME280;40347;53.848;27.498;2023-03-18T00:38:46;1025;;;2.6;49.5
54439;BME280;40347;53.848;27.498;2023-03-18T00:43:29;1025;;;2.6;49.2
54439;BME280;40347;53.848;27.498;2023-03-18T00:49:02;1025;;;2.7;49.3
54439;BME280;40347;53.848;27.498;2023-03-18T00:53:29;1024.9;;;2.7;49.3
54439;BME280;40347;53.848;27.498;2023-03-18T00:58:29;1024.9;;;2.7;49.3
54439;BME280;40347;53.848;27.498;2023-03-18T01:03:48;1024.8;;;2.6;49.4
54439;BME280;40347;53.848;27.498;2023-03-18T01:08:57;1024.8;;;2.6;49.3
54439;BME280;40347;53.848;27.498;2023-03-18T01:13:29;1024.7;;;2.5;49.6
54439;BME280;40347;53.848;27.498;2023-03-18T01:18:41;1024.7;;;2.5;49.5
54439;BME280;40347;53.848;27.498;2023-03-18T01:23:47;1024.6;;;2.5;49.7
54439;BME280;40347;53.848;27.498;2023-03-18T01:28:53;1024.6;;;2.4;49.9
54439;BME280;40347;53.848;27.498;2023-03-18T01:33:45;1024.6;;;2.4;49.9
54439;BME280;40347;53.848;27.498;2023-03-18T01:38:49;1024.6;;;2.3;50.1
54439;BME280;40347;53.848;27.498;2023-03-18T01:43:53;1024.7;;;2.3;50.5
54439;BME280;40347;53.848;27.498;2023-03-18T01:48:45;1024.7;;;2.3;50.6
54439;BME280;40347;53.848;27.498;2023-03-18T01:53:30;1024.7;;;2.3;50.6
54439;BME280;40347;53.848;27.498;2023-03-18T01:58:30;1024.8;;;2.2;50.6
54439;BME280;40347;53.848;27.498;2023-03-18T02:03:35;1024.8;;;2.2;50.8
54439;BME280;40347;53.848;27.498;2023-03-18T02:08:57;1024.8;;;2.1;50.9
54439;BME280;40347;53.848;27.498;2023-03-18T02:13:29;1024.9;;;2.2;51
54439;BME280;40347;53.848;27.498;2023-03-18T02:18:36;1024.9;;;2.2;51.2
54439;BME280;40347;53.848;27.498;2023-03-18T02:23:31;1024.9;;;2.2;50.9
54439;BME280;40347;53.848;27.498;2023-03-18T02:28:58;1024.9;;;2.1;51
54439;BME280;40347;53.848;27.498;2023-03-18T02:33:30;1024.9;;;2.1;51.2
54439;BME280;40347;53.848;27.498;2023-03-18T02:39:03;1024.9;;;2.1;51.3
54439;BME280;40347;53.848;27.498;2023-03-18T02:43:39;1024.8;;;2;51.5
54439;BME280;40347;53.848;27.498;2023-03-18T02:48:51;1024.9;;;2;51.3
54439;BME280;40347;53.848;27.498;2023-03-18T02:54:11;1024.9;;;2;51.5
54439;BME280;40347;53.848;27.498;2023-03-18T02:58:29;1025;;;2;51.4
54439;BME280;40347;53.848;27.498;2023-03-18T03:03:29;1025;;;2;51.4
54439;BME280;40347;53.848;27.498;2023-03-18T03:08:29;1025;;;2;51.5
54439;BME280;40347;53.848;27.498;2023-03-18T03:13:36;1024.9;;;2.1;51.4
54439;BME280;40347;53.848;27.498;2023-03-18T03:18:29;1024.9;;;2;51.7
54439;BME280;40347;53.848;27.498;2023-03-18T03:23:45;1024.9;;;2;51.8
54439;BME280;40347;53.848;27.498;2023-03-18T03:28:35;1025;;;1.9;52.1
54439;BME280;40347;53.848;27.498;2023-03-18T03:34:09;1025;;;2;52
54439;BME280;40347;53.848;27.498;2023-03-18T03:38:29;1025;;;2;52
54439;BME280;40347;53.848;27.498;2023-03-18T03:43:35;1025;;;2;52.1
54439;BME280;40347;53.848;27.498;2023-03-18T03:48:29;1025;;;1.9;52
54439;BME280;40347;53.848;27.498;2023-03-18T03:53:29;1025;;;2;52.2
54439;BME280;40347;53.848;27.498;2023-03-18T03:58:39;1025;;;1.9;52.2
54439;BME280;40347;53.848;27.498;2023-03-18T04:03:29;1025;;;2;52.1
54439;BME280;40347;53.848;27.498;2023-03-18T04:08:41;1025;;;2;52.2
54439;BME280;40347;53.848;27.498;2023-03-18T04:13:41;1025;;;1.9;52.3
54439;BME280;40347;53.848;27.498;2023-03-18T04:18:57;1025.1;;;1.9;52.4
54439;BME280;40347;53.848;27.498;2023-03-18T04:23:47;1025.2;;;1.9;52.5
54439;BME280;40347;53.848;27.498;2023-03-18T04:28:29;1025.2;;;1.9;52.5
54439;BME280;40347;53.848;27.498;2023-03-18T04:33:29;1025.3;;;2;52.4
54439;BME280;40347;53.848;27.498;2023-03-18T04:38:29;1025.3;;;2;52.2
54439;BME280;40347;53.848;27.498;2023-03-18T04:43:53;1025.3;;;2.1;52.2
54439;BME280;40347;53.848;27.498;2023-03-18T04:48:29;1025.3;;;2.2;52.1
54439;BME280;40347;53.848;27.498;2023-03-18T04:53:29;1025.3;;;2.4;52
54439;BME280;40347;53.848;27.498;2023-03-18T04:58:41;1025.4;;;2.5;51.7
54439;BME280;40347;53.848;27.498;2023-03-18T05:03:41;1025.4;;;2.8;51.2
54439;BME280;40347;53.848;27.498;2023-03-18T05:08:29;1025.4;;;2.9;51.1
54439;BME280;40347;53.848;27.498;2023-03-18T05:13:29;1025.5;;;3.1;50.8
54439;BME280;40347;53.848;27.498;2023-03-18T05:18:57;1025.5;;;3.3;50.5
54439;BME280;40347;53.848;27.498;2023-03-18T05:24:05;1025.5;;;3.6;49.9
54439;BME280;40347;53.848;27.498;2023-03-18T05:29:05;1025.5;;;3.8;49.6
54439;BME280;40347;53.848;27.498;2023-03-18T05:33:57;1025.5;;;4;49.2
54439;BME280;40347;53.848;27.498;2023-03-18T05:38:41;1025.5;;;4.2;48.6
54439;BME280;40347;53.848;27.498;2023-03-18T05:43:37;1025.4;;;4.5;48.2
54439;BME280;40347;53.848;27.498;2023-03-18T05:48:41;1025.3;;;4.6;47.9
54439;BME280;40347;53.848;27.498;2023-03-18T05:53:29;1025.2;;;4.8;47.8
54439;BME280;40347;53.848;27.498;2023-03-18T05:58:29;1025.2;;;5;47.6
54439;BME280;40347;53.848;27.498;2023-03-18T06:03:45;1025.3;;;5.2;47.2
54439;BME280;40347;53.848;27.498;2023-03-18T06:08:29;1025.3;;;5.4;47.1
54439;BME280;40347;53.848;27.498;2023-03-18T06:14:06;1025.3;;;5.4;46.7
54439;BME280;40347;53.848;27.498;2023-03-18T06:18:35;1025.3;;;5.6;46.8
54439;BME280;40347;53.848;27.498;2023-03-18T06:23:37;1025.3;;;5.7;46.7
54439;BME280;40347;53.848;27.498;2023-03-18T06:28:35;1025.2;;;5.8;46.6
54439;BME280;40347;53.848;27.498;2023-03-18T06:33:29;1025.2;;;5.8;46.1
54439;BME280;40347;53.848;27.498;2023-03-18T06:38:41;1025.3;;;5.9;45.6
54439;BME280;40347;53.848;27.498;2023-03-18T06:43:29;1025.3;;;6;45.8
54439;BME280;40347;53.848;27.498;2023-03-18T06:48:47;1025.3;;;6.1;45.9
54439;BME280;40347;53.848;27.498;2023-03-18T06:53:45;1025.2;;;6.2;45.6
54439;BME280;40347;53.848;27.498;2023-03-18T06:58:29;1025.2;;;6.3;45.5
54439;BME280;40347;53.848;27.498;2023-03-18T07:03:35;1025.3;;;6.3;45.2
54439;BME280;40347;53.848;27.498;2023-03-18T07:08:45;1025.3;;;6.5;45.1
54439;BME280;40347;53.848;27.498;2023-03-18T07:13:39;1025.3;;;6.6;45.2
54439;BME280;40347;53.848;27.498;2023-03-18T07:18:43;1025.3;;;6.7;44.7
54439;BME280;40347;53.848;27.498;2023-03-18T07:23:29;1025.4;;;6.8;45
54439;BME280;40347;53.848;27.498;2023-03-18T07:28:45;1025.3;;;7;44.7
54439;BME280;40347;53.848;27.498;2023-03-18T07:33:37;1025.3;;;7.1;44.3
54439;BME280;40347;53.848;27.498;2023-03-18T07:38:29;1025.3;;;7.2;44.3
54439;BME280;40347;53.848;27.498;2023-03-18T07:43:29;1025.3;;;7.2;44.5
54439;BME280;40347;53.848;27.498;2023-03-18T07:48:29;1025.3;;;7.2;44.5
54439;BME280;40347;53.848;27.498;2023-03-18T07:53:53;1025.3;;;7.1;44.4
54439;BME280;40347;53.848;27.498;2023-03-18T07:58:29;1025.2;;;7.1;44.1
54439;BME280;40347;53.848;27.498;2023-03-18T08:03:29;1025.2;;;7.1;44.2
54439;BME280;40347;53.848;27.498;2023-03-18T08:08:47;1025.3;;;7.2;44.3
54439;BME280;40347;53.848;27.498;2023-03-18T08:13:35;1025.3;;;7.2;44.1
54439;BME280;40347;53.848;27.498;2023-03-18T08:18:45;1025.3;;;7.3;44.3
54439;BME280;40347;53.848;27.498;2023-03-18T08:23:29;1025.3;;;7.3;43.6
54439;BME280;40347;53.848;27.498;2023-03-18T08:28:35;1025.2;;;7.5;44
54439;BME280;40347;53.848;27.498;2023-03-18T08:33:29;1025.2;;;7.5;44.3
54439;BME280;40347;53.848;27.498;2023-03-18T08:38:41;1025.1;;;7.5;43.9
54439;BME280;40347;53.848;27.498;2023-03-18T08:43:29;1025.1;;;7.6;44.1
54439;BME280;40347;53.848;27.498;2023-03-18T08:48:51;1025.2;;;7.6;44.2
54439;BME280;40347;53.848;27.498;2023-03-18T08:53:51;1025.2;;;7.7;44.2
54439;BME280;40347;53.848;27.498;2023-03-18T08:58:30;1025.2;;;7.9;44.1
54439;BME280;40347;53.848;27.498;2023-03-18T09:03:45;1025.2;;;7.9;44
54439;BME280;40347;53.848;27.498;2023-03-18T09:08:35;1025.1;;;8;43.9
54439;BME280;40347;53.848;27.498;2023-03-18T09:13:39;1025.1;;;8;43.9
54439;BME280;40347;53.848;27.498;2023-03-18T09:18:45;1025;;;8;44.1
54439;BME280;40347;53.848;27.498;2023-03-18T09:23:30;1024.9;;;8.2;43.9
54439;BME280;40347;53.848;27.498;2023-03-18T09:28:39;1024.9;;;8.3;44
54439;BME280;40347;53.848;27.498;2023-03-18T09:33:41;1024.9;;;8.4;44
54439;BME280;40347;53.848;27.498;2023-03-18T09:38:35;1024.9;;;8.4;43.8
54439;BME280;40347;53.848;27.498;2023-03-18T09:43:53;1024.9;;;8.4;43.6
54439;BME280;40347;53.848;27.498;2023-03-18T09:48:55;1024.8;;;8.4;44
54439;BME280;40347;53.848;27.498;2023-03-18T09:53:38;1024.8;;;8.5;44.2
54439;BME280;40347;53.848;27.498;2023-03-18T09:58:32;1024.7;;;8.4;44.2
54439;BME280;40347;53.848;27.498;2023-03-18T10:03:42;1024.6;;;8.5;44.4
54439;BME280;40347;53.848;27.498;2023-03-18T10:08:41;1024.6;;;8.5;44.1
54439;BME280;40347;53.848;27.498;2023-03-18T10:13:44;1024.6;;;8.5;44.5
54439;BME280;40347;53.848;27.498;2023-03-18T10:18:30;1024.5;;;8.5;44.4
54439;BME280;40347;53.848;27.498;2023-03-18T10:23:34;1024.5;;;8.6;44.4
54439;BME280;40347;53.848;27.498;2023-03-18T10:28:49;1024.5;;;8.5;44.3
54439;BME280;40347;53.848;27.498;2023-03-18T10:33:32;1024.4;;;8.5;44.5
54439;BME280;40347;53.848;27.498;2023-03-18T10:38:30;1024.4;;;8.4;44.6
54439;BME280;40347;53.848;27.498;2023-03-18T10:43:46;1024.2;;;8.3;44.8
54439;BME280;40347;53.848;27.498;2023-03-18T10:48:30;1024.1;;;8.5;45.1
54439;BME280;40347;53.848;27.498;2023-03-18T10:53:42;1024.1;;;8.8;44.8
54439;BME280;40347;53.848;27.498;2023-03-18T10:58:51;1024;;;9.2;44.4
54439;BME280;40347;53.848;27.498;2023-03-18T11:03:31;1023.9;;;9.4;44.2
54439;BME280;40347;53.848;27.498;2023-03-18T11:09:01;1023.9;;;9.5;44.1
54439;BME280;40347;53.848;27.498;2023-03-18T11:13:45;1023.8;;;9.7;44.2
54439;BME280;40347;53.848;27.498;2023-03-18T11:18:35;1023.8;;;9.6;44.3
54439;BME280;40347;53.848;27.498;2023-03-18T11:23:30;1023.8;;;9.3;44.4
54439;BME280;40347;53.848;27.498;2023-03-18T11:28:41;1023.7;;;9.1;44.8
54439;BME280;40347;53.848;27.498;2023-03-18T11:34:00;1023.6;;;8.9;44.9
54439;BME280;40347;53.848;27.498;2023-03-18T11:38:54;1023.6;;;8.8;45.2
54439;BME280;40347;53.848;27.498;2023-03-18T11:43:29;1023.6;;;8.7;45.3
54439;BME280;40347;53.848;27.498;2023-03-18T11:48:53;1023.5;;;8.8;45.4
54439;BME280;40347;53.848;27.498;2023-03-18T11:53:49;1023.5;;;8.8;45.5
54439;BME280;40347;53.848;27.498;2023-03-18T11:58:46;1023.5;;;8.8;45.4
54439;BME280;40347;53.848;27.498;2023-03-18T12:04:51;1023.4;;;8.7;45.5
54439;BME280;40347;53.848;27.498;2023-03-18T12:08:32;1023.3;;;8.7;45.7
54439;BME280;40347;53.848;27.498;2023-03-18T12:13:32;1023.3;;;8.8;45.8
54439;BME280;40347;53.848;27.498;2023-03-18T12:18:35;1023.3;;;8.9;45.7
54439;BME280;40347;53.848;27.498;2023-03-18T12:24:11;1023.2;;;8.9;45.7
54439;BME280;40347;53.848;27.498;2023-03-18T12:28:52;1023.2;;;8.9;45.7
54439;BME280;40347;53.848;27.498;2023-03-18T12:33:44;1023.1;;;8.9;45.9
54439;BME280;40347;53.848;27.498;2023-03-18T12:39:05;1023.1;;;8.9;45.9
54439;BME280;40347;53.848;27.498;2023-03-18T12:43:34;1023;;;8.9;45.8
54439;BME280;40347;53.848;27.498;2023-03-18T12:48:54;1022.9;;;9;46
54439;BME280;40347;53.848;27.498;2023-03-18T12:53:40;1022.9;;;9;46.1
54439;BME280;40347;53.848;27.498;2023-03-18T12:58:30;1022.8;;;9;46
54439;BME280;40347;53.848;27.498;2023-03-18T13:03:30;1022.7;;;9;46
54439;BME280;40347;53.848;27.498;2023-03-18T13:08:46;1022.7;;;8.9;46
54439;BME280;40347;53.848;27.498;2023-03-18T13:13:30;1022.7;;;8.9;45.9
54439;BME280;40347;53.848;27.498;2023-03-18T13:19:03;1022.6;;;9;46
54439;BME280;40347;53.848;27.498;2023-03-18T13:23:45;1022.6;;;9;46.1
54439;BME280;40347;53.848;27.498;2023-03-18T13:28:43;1022.5;;;9.1;46.1
54439;BME280;40347;53.848;27.498;2023-03-18T13:33:34;1022.5;;;9.2;46
54439;BME280;40347;53.848;27.498;2023-03-18T13:38:42;1022.4;;;9.2;46.1
54439;BME280;40347;53.848;27.498;2023-03-18T13:43:30;1022.4;;;9.2;46
54439;BME280;40347;53.848;27.498;2023-03-18T13:48:36;1022.3;;;9.3;45.9
54439;BME280;40347;53.848;27.498;2023-03-18T13:53:30;1022.2;;;9.2;46
54439;BME280;40347;53.848;27.498;2023-03-18T13:58:54;1022.2;;;9.3;46
54439;BME280;40347;53.848;27.498;2023-03-18T14:04:19;1022.1;;;9.2;46
54439;BME280;40347;53.848;27.498;2023-03-18T14:08:32;1022.1;;;9.2;45.9
54439;BME280;40347;53.848;27.498;2023-03-18T14:13:36;1022;;;9.2;45.8
54439;BME280;40347;53.848;27.498;2023-03-18T14:18:44;1022;;;9.3;45.8
54439;BME280;40347;53.848;27.498;2023-03-18T14:23:32;1021.9;;;9.2;45.7
54439;BME280;40347;53.848;27.498;2023-03-18T14:29:14;1021.9;;;9.2;45.4
54439;BME280;40347;53.848;27.498;2023-03-18T14:33:32;1021.8;;;9.2;45.4
54439;BME280;40347;53.848;27.498;2023-03-18T14:38:30;1021.8;;;9.2;45.3
54439;BME280;40347;53.848;27.498;2023-03-18T14:43:32;1021.8;;;9.1;45
54439;BME280;40347;53.848;27.498;2023-03-18T14:48:30;1021.7;;;9.2;45.2
54439;BME280;40347;53.848;27.498;2023-03-18T14:53:40;1021.7;;;9.1;45.3
54439;BME280;40347;53.848;27.498;2023-03-18T14:58:30;1021.6;;;9;45.3
54439;BME280;40347;53.848;27.498;2023-03-18T15:03:30;1021.5;;;8.9;45.5
54439;BME280;40347;53.848;27.498;2023-03-18T15:08:30;1021.5;;;8.9;45.6
54439;BME280;40347;53.848;27.498;2023-03-18T15:13:39;1021.5;;;8.8;45.6
54439;BME280;40347;53.848;27.498;2023-03-18T15:18:54;1021.4;;;8.8;45.4
54439;BME280;40347;53.848;27.498;2023-03-18T15:23:43;1021.4;;;8.7;45.5
54439;BME280;40347;53.848;27.498;2023-03-18T15:28:30;1021.4;;;8.6;45.6
54439;BME280;40347;53.848;27.498;2023-03-18T15:33:40;1021.5;;;8.5;45.7
54439;BME280;40347;53.848;27.498;2023-03-18T15:38:44;1021.5;;;8.5;45.8
54439;BME280;40347;53.848;27.498;2023-03-18T15:43:31;1021.4;;;8.4;45.4
54439;BME280;40347;53.848;27.498;2023-03-18T15:48:31;1021.4;;;8.4;44.9
54439;BME280;40347;53.848;27.498;2023-03-18T15:53:38;1021.4;;;8.2;44
54439;BME280;40347;53.848;27.498;2023-03-18T15:58:57;1021.4;;;8.1;43.3
54439;BME280;40347;53.848;27.498;2023-03-18T16:03:31;1021.4;;;8;43.3
54439;BME280;40347;53.848;27.498;2023-03-18T16:08:30;1021.5;;;7.9;43.1
54439;BME280;40347;53.848;27.498;2023-03-18T16:13:40;1021.5;;;7.7;43.3
54439;BME280;40347;53.848;27.498;2023-03-18T16:18:48;1021.5;;;7.6;42.9
54439;BME280;40347;53.848;27.498;2023-03-18T16:23:30;1021.5;;;7.4;42.5
54439;BME280;40347;53.848;27.498;2023-03-18T16:28:44;1021.6;;;7.2;42.6
54439;BME280;40347;53.848;27.498;2023-03-18T16:33:42;1021.6;;;7.2;42.9
54439;BME280;40347;53.848;27.498;2023-03-18T16:38:36;1021.6;;;7.1;43.1
54439;BME280;40347;53.848;27.498;2023-03-18T16:43:42;1021.6;;;7;42.9
54439;BME280;40347;53.848;27.498;2023-03-18T16:48:54;1021.5;;;6.8;43.3
54439;BME280;40347;53.848;27.498;2023-03-18T16:53:46;1021.5;;;6.7;43.4
54439;BME280;40347;53.848;27.498;2023-03-18T16:58:46;1021.5;;;6.6;43.5
54439;BME280;40347;53.848;27.498;2023-03-18T17:03:30;1021.5;;;6.6;43.7
54439;BME280;40347;53.848;27.498;2023-03-18T17:08:58;1021.5;;;6.6;43.7
54439;BME280;40347;53.848;27.498;2023-03-18T17:14:06;1021.5;;;6.4;43.6
54439;BME280;40347;53.848;27.498;2023-03-18T17:18:36;1021.5;;;6.4;43.7
54439;BME280;40347;53.848;27.498;2023-03-18T17:23:30;1021.5;;;6.3;43.8
54439;BME280;40347;53.848;27.498;2023-03-18T17:29:04;1021.5;;;6.2;43.9
54439;BME280;40347;53.848;27.498;2023-03-18T17:33:30;1021.4;;;6.2;43.9
54439;BME280;40347;53.848;27.498;2023-03-18T17:38:36;1021.4;;;6.1;44
54439;BME280;40347;53.848;27.498;2023-03-18T17:43:46;1021.4;;;6;44.2
54439;BME280;40347;53.848;27.498;2023-03-18T17:48:52;1021.4;;;5.9;44.2
54439;BME280;40347;53.848;27.498;2023-03-18T17:53:42;1021.5;;;5.9;44.2
54439;BME280;40347;53.848;27.498;2023-03-18T17:58:50;1021.4;;;5.8;44.3
54439;BME280;40347;53.848;27.498;2023-03-18T18:03:30;1021.4;;;5.8;44.4
54439;BME280;40347;53.848;27.498;2023-03-18T18:09:04;1021.4;;;5.7;44.3
54439;BME280;40347;53.848;27.498;2023-03-18T18:13:50;1021.4;;;5.7;44.5
54439;BME280;40347;53.848;27.498;2023-03-18T18:18:30;1021.4;;;5.7;44.3
54439;BME280;40347;53.848;27.498;2023-03-18T18:23:58;1021.3;;;5.7;44.3
54439;BME280;40347;53.848;27.498;2023-03-18T18:29:13;1021.3;;;5.6;44.3
54439;BME280;40347;53.848;27.498;2023-03-18T18:33:30;1021.3;;;5.6;44.4
54439;BME280;40347;53.848;27.498;2023-03-18T18:38:30;1021.2;;;5.6;44.2
54439;BME280;40347;53.848;27.498;2023-03-18T18:43:58;1021.1;;;5.6;44.4
54439;BME280;40347;53.848;27.498;2023-03-18T18:48:30;1021.1;;;5.5;44.4
54439;BME280;40347;53.848;27.498;2023-03-18T18:53:52;1021.1;;;5.5;44.2
54439;BME280;40347;53.848;27.498;2023-03-18T18:58:50;1021.1;;;5.5;44.4
54439;BME280;40347;53.848;27.498;2023-03-18T19:03:30;1021;;;5.4;44.4
54439;BME280;40347;53.848;27.498;2023-03-18T19:08:30;1021;;;5.4;44.3
54439;BME280;40347;53.848;27.498;2023-03-18T19:13:30;1021;;;5.4;44.4
54439;BME280;40347;53.848;27.498;2023-03-18T19:18:46;1021;;;5.5;44.3
54439;BME280;40347;53.848;27.498;2023-03-18T19:23:48;1021.1;;;5.5;44.3
54439;BME280;40347;53.848;27.498;2023-03-18T19:28:40;1021.1;;;5.4;44.3
54439;BME280;40347;53.848;27.498;2023-03-18T19:33:30;1021.1;;;5.3;44.3
54439;BME280;40347;53.848;27.498;2023-03-18T19:38:57;1021;;;5.3;44.3
54439;BME280;40347;53.848;27.498;2023-03-18T19:43:30;1021;;;5.4;44.4
54439;BME280;40347;53.848;27.498;2023-03-18T19:48:30;1021;;;5.4;44.5
54439;BME280;40347;53.848;27.498;2023-03-18T19:53:42;1021;;;5.4;44.5
54439;BME280;40347;53.848;27.498;2023-03-18T19:58:30;1021;;;5.3;44.5
54439;BME280;40347;53.848;27.498;2023-03-18T20:03:44;1020.9;;;5.2;44.6
54439;BME280;40347;53.848;27.498;2023-03-18T20:08:30;1020.8;;;5.2;44.6
54439;BME280;40347;53.848;27.498;2023-03-18T20:13:30;1020.8;;;5.3;44.6
54439;BME280;40347;53.848;27.498;2023-03-18T20:18:30;1020.8;;;5.2;44.6
54439;BME280;40347;53.848;27.498;2023-03-18T20:23:30;1020.7;;;5.2;44.5
54439;BME280;40347;53.848;27.498;2023-03-18T20:28:56;1020.8;;;5.1;44.8
54439;BME280;40347;53.848;27.498;2023-03-18T20:33:30;1020.7;;;5.1;44.8
54439;BME280;40347;53.848;27.498;2023-03-18T20:38:30;1020.8;;;5.1;45
54439;BME280;40347;53.848;27.498;2023-03-18T20:43:56;1020.8;;;5.1;44.9
54439;BME280;40347;53.848;27.498;2023-03-18T20:48:44;1020.8;;;5;44.9
54439;BME280;40347;53.848;27.498;2023-03-18T20:53:30;1020.8;;;4.9;44.8
54439;BME280;40347;53.848;27.498;2023-03-18T20:58:42;1020.8;;;4.9;44.9
54439;BME280;40347;53.848;27.498;2023-03-18T21:03:40;1020.8;;;4.8;45.1
54439;BME280;40347;53.848;27.498;2023-03-18T21:08:30;1020.7;;;4.8;45.1
54439;BME280;40347;53.848;27.498;2023-03-18T21:13:40;1020.7;;;4.7;45.3
54439;BME280;40347;53.848;27.498;2023-03-18T21:18:42;1020.7;;;4.6;45.4
54439;BME280;40347;53.848;27.498;2023-03-18T21:23:30;1020.7;;;4.6;45.5
54439;BME280;40347;53.848;27.498;2023-03-18T21:28:58;1020.7;;;4.6;45.6
54439;BME280;40347;53.848;27.498;2023-03-18T21:33:46;1020.7;;;4.5;45.9
54439;BME280;40347;53.848;27.498;2023-03-18T21:38:36;1020.7;;;4.5;45.9
54439;BME280;40347;53.848;27.498;2023-03-18T21:43:56;1020.7;;;4.5;46
54439;BME280;40347;53.848;27.498;2023-03-18T21:48:30;1020.7;;;4.4;46.1
54439;BME280;40347;53.848;27.498;2023-03-18T21:53:40;1020.7;;;4.4;46.2
54439;BME280;40347;53.848;27.498;2023-03-18T21:58:46;1020.7;;;4.4;46.3
54439;BME280;40347;53.848;27.498;2023-03-18T22:03:30;1020.7;;;4.4;46.5
54439;BME280;40347;53.848;27.498;2023-03-18T22:09:02;1020.6;;;4.3;46.8
54439;BME280;40347;53.848;27.498;2023-03-18T22:13:48;1020.6;;;4.3;46.9
54439;BME280;40347;53.848;27.498;2023-03-18T22:18:36;1020.6;;;4.2;47.1
54439;BME280;40347;53.848;27.498;2023-03-18T22:23:30;1020.6;;;4.2;47.1
54439;BME280;40347;53.848;27.498;2023-03-18T22:28:46;1020.6;;;4.2;47.1
54439;BME280;40347;53.848;27.498;2023-03-18T22:33:48;1020.5;;;4.1;47.1
54439;BME280;40347;53.848;27.498;2023-03-18T22:38:30;1020.6;;;4.1;47.1
54439;BME280;40347;53.848;27.498;2023-03-18T22:43:30;1020.6;;;4.1;47.1
54439;BME280;40347;53.848;27.498;2023-03-18T22:48:30;1020.7;;;4;47.1
54439;BME280;40347;53.848;27.498;2023-03-18T22:53:42;1020.7;;;4;47.3
54439;BME280;40347;53.848;27.498;2023-03-18T22:58:30;1020.7;;;4;47.3
54439;BME280;40347;53.848;27.498;2023-03-18T23:03:52;1020.6;;;4;47.5
54439;BME280;40347;53.848;27.498;2023-03-18T23:08:30;1020.6;;;3.9;47.5
54439;BME280;40347;53.848;27.498;2023-03-18T23:13:32;1020.6;;;4;47.6
54439;BME280;40347;53.848;27.498;2023-03-18T23:18:36;1020.6;;;3.9;47.6
54439;BME280;40347;53.848;27.498;2023-03-18T23:23:46;1020.6;;;3.9;47.7
54439;BME280;40347;53.848;27.498;2023-03-18T23:28:42;1020.5;;;3.8;47.8
54439;BME280;40347;53.848;27.498;2023-03-18T23:33:42;1020.5;;;3.8;48
54439;BME280;40347;53.848;27.498;2023-03-18T23:38:46;1020.5;;;3.7;48
54439;BME280;40347;53.848;27.498;2023-03-18T23:43:30;1020.4;;;3.7;47.9
54439;BME280;40347;53.848;27.498;2023-03-18T23:48:40;1020.4;;;3.7;48.1
54439;BME280;40347;53.848;27.498;2023-03-18T23:53:30;1020.3;;;3.6;48.2
54439;BME280;40347;53.848;27.498;2023-03-18T23:58:30;1020.3;;;3.5;48.2
